createdAt,value
2022-09-26T00:02:15.100Z,5.30
2022-09-26T00:04:45.775Z,4.65
2022-09-26T00:07:17.064Z,5.20
2022-09-26T00:09:47.110Z,5.45
2022-09-26T00:12:17.950Z,6.00
2022-09-26T00:14:47.961Z,5.78
2022-09-26T00:17:18.034Z,6.07
2022-09-26T00:19:48.546Z,4.82
2022-09-26T00:22:18.828Z,5.10
2022-09-26T00:24:48.895Z,5.30
2022-09-26T00:27:18.973Z,6.75
2022-09-26T00:29:49.187Z,5.70
2022-09-26T00:32:19.524Z,6.20
2022-09-26T00:34:49.876Z,5.55
2022-09-26T00:37:20.015Z,5.28
2022-09-26T00:39:50.108Z,5.78
2022-09-26T00:42:20.564Z,6.30
2022-09-26T00:44:51.569Z,6.47
2022-09-26T00:47:40.738Z,5.35
2022-09-26T00:50:14.525Z,5.55
2022-09-26T00:52:47.604Z,5.78
2022-09-26T00:55:17.728Z,5.45
2022-09-26T00:57:49.437Z,5.53
2022-09-26T01:00:19.805Z,5.10
2022-09-26T01:02:51.090Z,6.18
2022-09-26T01:05:22.733Z,8.20
2022-09-26T01:07:53.999Z,7.37
2022-09-26T01:10:25.640Z,7.47
2022-09-26T01:12:57.021Z,6.55
2022-09-26T01:15:27.316Z,7.25
2022-09-26T01:17:57.501Z,7.40
2022-09-26T01:20:35.702Z,7.90
2022-09-26T01:23:07.415Z,6.95
2022-09-26T01:25:43.690Z,7.32
2022-09-26T01:28:28.398Z,7.00
2022-09-26T01:30:58.617Z,7.93
2022-09-26T01:33:31.545Z,6.78
2022-09-26T01:36:08.683Z,6.82
2022-09-26T01:38:54.286Z,7.97
2022-09-26T01:41:36.669Z,6.05
2022-09-26T01:44:07.545Z,6.40
2022-09-26T01:46:46.676Z,7.82
2022-09-26T01:49:19.176Z,7.78
2022-09-26T01:54:29.716Z,7.30
2022-09-26T01:56:59.956Z,6.65
2022-09-26T01:59:34.802Z,7.00
2022-09-26T02:02:14.952Z,6.78
2022-09-26T02:04:45.267Z,6.80
2022-09-26T02:07:18.922Z,7.00
2022-09-26T02:09:50.340Z,6.60
2022-09-26T02:12:22.363Z,6.80
2022-09-26T02:14:53.373Z,6.43
2022-09-26T02:17:24.611Z,6.38
2022-09-26T02:19:54.830Z,6.65
2022-09-26T02:22:25.946Z,5.43
2022-09-26T02:24:56.068Z,6.32
2022-09-26T02:27:26.964Z,6.38
2022-09-26T02:29:57.119Z,6.13
2022-09-26T02:32:29.187Z,6.55
2022-09-26T02:35:00.102Z,6.25
2022-09-26T02:37:33.430Z,5.93
2022-09-26T02:40:03.967Z,6.05
2022-09-26T02:42:44.225Z,5.90
2022-09-26T02:45:18.083Z,6.72
2022-09-26T02:47:50.684Z,6.85
2022-09-26T02:50:21.383Z,6.60
2022-09-26T02:53:11.659Z,6.38
2022-09-26T02:55:50.700Z,5.97
2022-09-26T02:58:24.086Z,5.50
2022-09-26T03:01:06.314Z,6.53
2022-09-26T03:03:38.009Z,5.85
2022-09-26T03:06:08.823Z,6.60
2022-09-26T03:08:43.715Z,6.82
2022-09-26T03:11:14.784Z,6.22
2022-09-26T03:13:44.778Z,6.78
2022-09-26T03:16:15.190Z,6.18
2022-09-26T03:18:52.565Z,6.07
2022-09-26T03:21:22.653Z,6.95
2022-09-26T03:23:52.707Z,6.10
2022-09-26T03:26:25.742Z,6.13
2022-09-26T03:28:58.839Z,6.25
2022-09-26T03:31:32.431Z,6.78
2022-09-26T03:34:09.528Z,6.47
2022-09-26T03:36:41.306Z,6.45
2022-09-26T03:39:13.736Z,6.40
2022-09-26T03:41:50.552Z,7.20
2022-09-26T03:44:23.733Z,6.00
2022-09-26T03:47:12.511Z,6.47
2022-09-26T03:49:47.383Z,6.72
2022-09-26T03:52:19.468Z,6.57
2022-09-26T03:54:51.096Z,6.97
2022-09-26T03:57:21.344Z,6.70
2022-09-26T03:59:59.768Z,7.57
2022-09-26T04:02:46.081Z,8.48
2022-09-26T04:05:37.207Z,6.60
2022-09-26T04:08:08.339Z,6.30
2022-09-26T04:10:39.932Z,9.23
2022-09-26T04:13:10.760Z,11.70
2022-09-26T04:15:40.782Z,17.67
2022-09-26T04:18:16.123Z,20.35
2022-09-26T04:20:46.299Z,35.08
2022-09-26T04:23:16.978Z,43.92
2022-09-26T04:25:47.767Z,40.22
2022-09-26T04:28:18.071Z,38.33
2022-09-26T04:30:48.146Z,31.80
2022-09-26T04:33:20.808Z,30.63
2022-09-26T04:36:06.240Z,30.75
2022-09-26T04:38:36.366Z,27.38
2022-09-26T04:41:07.672Z,30.20
2022-09-26T04:43:37.972Z,27.63
2022-09-26T04:46:11.730Z,27.85
2022-09-26T04:48:43.751Z,22.42
2022-09-26T04:51:22.725Z,22.25
2022-09-26T04:53:53.854Z,24.60
2022-09-26T04:56:31.478Z,14.05
2022-09-26T04:59:02.006Z,14.73
2022-09-26T05:01:52.142Z,15.82
2022-09-26T05:04:28.519Z,17.60
2022-09-26T05:07:00.448Z,15.13
2022-09-26T05:09:36.149Z,14.30
2022-09-26T05:12:19.364Z,12.23
2022-09-26T05:14:58.064Z,10.95
2022-09-26T05:17:28.965Z,10.65
2022-09-26T05:20:02.956Z,11.75
2022-09-26T05:22:53.633Z,8.18
2022-09-26T05:25:47.774Z,8.02
2022-09-26T05:28:22.760Z,7.25
2022-09-26T05:30:53.212Z,6.50
2022-09-26T05:33:24.382Z,8.23
2022-09-26T05:35:56.007Z,7.85
2022-09-26T05:38:26.060Z,6.68
2022-09-26T05:40:59.651Z,9.40
2022-09-26T05:43:32.277Z,8.20
2022-09-26T05:46:05.068Z,5.15
2022-09-26T05:48:42.759Z,12.73
2022-09-26T05:51:19.657Z,12.25
2022-09-26T05:53:50.636Z,10.25
2022-09-26T05:56:24.799Z,6.32
2022-09-26T05:59:22.295Z,8.90
2022-09-26T06:02:10.328Z,7.55
2022-09-26T06:04:58.264Z,6.15
2022-09-26T06:07:44.880Z,7.03
2022-09-26T06:10:24.901Z,7.72
2022-09-26T06:13:04.056Z,11.05
2022-09-26T06:15:38.869Z,11.93
2022-09-26T06:18:09.054Z,12.05
2022-09-26T06:20:40.128Z,11.00
2022-09-26T06:23:19.284Z,10.77
2022-09-26T06:25:51.244Z,10.60
2022-09-26T06:28:21.328Z,10.07
2022-09-26T06:30:53.054Z,10.32
2022-09-26T06:33:41.251Z,9.55
2022-09-26T06:36:37.671Z,9.18
2022-09-26T06:39:09.056Z,9.30
2022-09-26T06:41:39.916Z,7.97
2022-09-26T06:44:30.832Z,8.90
2022-09-26T06:47:19.145Z,8.30
2022-09-26T06:49:49.619Z,6.22
2022-09-26T06:52:35.857Z,6.25
2022-09-26T06:55:08.027Z,8.23
2022-09-26T06:57:41.668Z,6.32
2022-09-26T07:00:12.739Z,6.85
2022-09-26T07:03:06.045Z,6.93
2022-09-26T07:06:05.363Z,7.25
2022-09-26T07:09:01.097Z,8.38
2022-09-26T07:12:12.808Z,8.95
2022-09-26T07:14:38.805Z,9.48
2022-09-26T07:20:09.462Z,9.43
2022-09-26T07:22:58.727Z,8.13
2022-09-26T07:25:28.829Z,6.65
2022-09-26T07:27:58.845Z,6.13
2022-09-26T07:30:38.371Z,4.57
2022-09-26T07:33:36.781Z,6.93
2022-09-26T07:36:10.913Z,8.73
2022-09-26T07:38:41.286Z,9.02
2022-09-26T07:41:12.472Z,12.18
2022-09-26T07:44:34.576Z,10.18
2022-09-26T07:46:51.772Z,10.43
2022-09-26T07:49:41.584Z,8.68
2022-09-26T07:52:25.120Z,8.40
2022-09-26T07:55:19.143Z,9.55
2022-09-26T07:58:02.190Z,11.10
2022-09-26T08:00:58.676Z,10.10
2022-09-26T08:03:54.644Z,10.07
2022-09-26T08:06:30.293Z,7.67
2022-09-26T08:09:00.507Z,8.57
2022-09-26T08:12:08.933Z,10.77
2022-09-26T08:14:59.158Z,8.48
2022-09-26T08:17:44.540Z,9.35
2022-09-26T08:20:14.568Z,9.60
2022-09-26T08:22:44.688Z,10.02
2022-09-26T08:25:16.895Z,10.82
2022-09-26T08:28:01.365Z,9.65
2022-09-26T08:30:32.416Z,7.00
2022-09-26T08:33:05.739Z,6.82
2022-09-26T08:35:39.976Z,6.10
2022-09-26T08:41:18.424Z,5.13
2022-09-26T08:44:33.271Z,4.38
2022-09-26T08:50:41.621Z,4.10
2022-09-26T08:53:13.216Z,6.97
2022-09-26T08:55:56.880Z,11.25
2022-09-26T08:58:53.055Z,11.18
2022-09-26T09:01:29.517Z,8.85
2022-09-26T09:04:52.978Z,8.63
2022-09-26T09:07:26.331Z,9.45
2022-09-26T09:09:59.265Z,10.80
2022-09-26T09:12:58.580Z,10.35
2022-09-26T09:15:54.680Z,6.97
2022-09-26T09:18:52.398Z,6.05
2022-09-26T09:21:49.426Z,5.30
2022-09-26T09:24:44.186Z,4.97
2022-09-26T09:30:17.299Z,3.25
2022-09-26T09:33:03.546Z,2.72
2022-09-26T09:36:15.206Z,3.17
2022-09-26T09:39:08.698Z,4.00
2022-09-26T09:41:57.903Z,4.85
2022-09-26T09:44:47.136Z,4.28
2022-09-26T09:47:18.073Z,4.90
2022-09-26T09:49:51.627Z,5.82
2022-09-26T09:52:27.746Z,4.47
2022-09-26T09:55:13.919Z,6.05
2022-09-26T09:58:03.204Z,4.80
2022-09-26T10:00:38.314Z,4.65
2022-09-26T10:03:27.974Z,5.47
2022-09-26T10:06:01.687Z,5.63
2022-09-26T10:08:35.112Z,4.97
2022-09-26T10:11:33.148Z,4.43
2022-09-26T10:14:34.076Z,3.73
2022-09-26T10:17:13.389Z,4.47
2022-09-26T10:20:01.929Z,3.92
2022-09-26T10:22:39.042Z,4.10
2022-09-26T10:25:11.324Z,3.70
2022-09-26T10:27:42.075Z,4.15
2022-09-26T10:30:22.192Z,4.05
2022-09-26T10:32:56.967Z,3.72
2022-09-26T10:35:47.763Z,3.67
2022-09-26T10:38:28.513Z,3.20
2022-09-26T10:41:15.549Z,4.57
2022-09-26T10:43:46.999Z,3.13
2022-09-26T10:46:28.139Z,3.75
2022-09-26T10:49:16.384Z,3.85
2022-09-26T10:52:21.734Z,3.28
2022-09-26T10:55:12.613Z,3.53
2022-09-26T10:57:46.788Z,3.85
2022-09-26T11:00:23.166Z,3.95
2022-09-26T11:02:53.457Z,3.90
2022-09-26T11:05:41.776Z,3.58
2022-09-26T11:08:17.644Z,3.38
2022-09-26T11:11:12.573Z,3.47
2022-09-26T11:13:51.243Z,3.17
2022-09-26T11:16:22.754Z,2.83
2022-09-26T11:19:11.294Z,4.00
2022-09-26T11:21:43.908Z,3.10
2022-09-26T11:24:13.949Z,3.25
2022-09-26T11:27:06.786Z,3.10
2022-09-26T11:29:40.644Z,2.65
2022-09-26T11:32:26.436Z,2.88
2022-09-26T11:35:03.591Z,3.70
2022-09-26T11:37:38.789Z,2.92
2022-09-26T11:40:15.543Z,4.10
2022-09-26T11:43:00.941Z,3.50
2022-09-26T11:45:49.674Z,4.20
2022-09-26T11:49:02.150Z,3.58
2022-09-26T11:51:58.616Z,4.43
2022-09-26T11:54:47.502Z,3.25
2022-09-26T11:57:32.833Z,5.85
2022-09-26T12:00:17.480Z,4.30
2022-09-26T12:03:10.840Z,4.32
2022-09-26T12:05:56.143Z,4.78
2022-09-26T12:08:37.197Z,4.88
2022-09-26T12:11:16.425Z,4.47
2022-09-26T12:13:53.514Z,5.72
2022-09-26T12:16:23.753Z,6.65
2022-09-26T12:18:57.002Z,7.47
2022-09-26T12:22:07.903Z,8.63
2022-09-26T12:24:39.968Z,11.93
2022-09-26T12:27:19.344Z,12.23
2022-09-26T12:29:57.762Z,13.23
2022-09-26T12:32:48.217Z,16.27
2022-09-26T12:35:24.378Z,14.70
2022-09-26T12:38:06.639Z,16.02
2022-09-26T12:43:15.013Z,16.13
2022-09-26T12:46:03.555Z,17.75
2022-09-26T12:48:39.734Z,16.08
2022-09-26T12:51:10.038Z,17.10
2022-09-26T12:53:49.240Z,18.50
2022-09-26T12:56:42.126Z,19.98
2022-09-26T12:59:37.804Z,21.63
2022-09-26T13:02:18.293Z,21.48
2022-09-26T13:04:54.092Z,20.38
2022-09-26T13:07:27.068Z,20.63
2022-09-26T13:10:06.114Z,21.00
2022-09-26T13:12:48.599Z,22.95
2022-09-26T13:15:21.438Z,21.70
2022-09-26T13:17:59.519Z,23.85
2022-09-26T13:20:46.021Z,22.95
2022-09-26T13:23:19.507Z,22.58
2022-09-26T13:25:54.247Z,23.65
2022-09-26T13:28:25.381Z,21.75
2022-09-26T13:30:59.166Z,24.08
2022-09-26T13:33:42.778Z,23.10
2022-09-26T13:36:13.145Z,23.52
2022-09-26T13:38:52.957Z,22.92
2022-09-26T13:41:35.623Z,22.30
2022-09-26T13:44:12.061Z,23.58
2022-09-26T13:47:01.292Z,22.08
2022-09-26T13:49:46.987Z,21.75
2022-09-26T13:52:23.661Z,21.48
2022-09-26T13:54:58.615Z,22.27
2022-09-26T13:57:32.964Z,23.38
2022-09-26T14:00:18.233Z,22.95
2022-09-26T14:03:24.466Z,24.83
2022-09-26T14:05:54.764Z,24.08
2022-09-26T14:08:46.612Z,22.70
2022-09-26T14:11:28.616Z,24.42
2022-09-26T14:14:20.414Z,22.98
2022-09-26T14:16:54.285Z,24.10
2022-09-26T14:19:30.446Z,25.30
2022-09-26T14:22:04.502Z,23.60
2022-09-26T14:24:47.148Z,25.02
2022-09-26T14:29:54.199Z,22.17
2022-09-26T14:32:25.137Z,23.95
2022-09-26T14:35:00.379Z,23.73
2022-09-26T14:37:30.469Z,24.15
2022-09-26T14:40:03.629Z,21.85
2022-09-26T14:42:46.107Z,24.02
2022-09-26T14:45:19.105Z,21.33
2022-09-26T14:47:56.221Z,20.73
2022-09-26T14:50:36.640Z,20.33
2022-09-26T14:53:36.093Z,21.52
2022-09-26T14:56:07.671Z,20.30
2022-09-26T14:58:40.955Z,19.75
2022-09-26T15:01:20.091Z,20.48
2022-09-26T15:04:25.402Z,18.58
2022-09-26T15:06:56.871Z,20.55
2022-09-26T15:09:28.182Z,19.90
2022-09-26T15:12:01.397Z,18.75
2022-09-26T15:14:34.049Z,17.38
2022-09-26T15:17:04.130Z,17.48
2022-09-26T15:19:35.612Z,19.77
2022-09-26T15:22:07.434Z,19.30
2022-09-26T15:24:37.923Z,20.58
2022-09-26T15:27:28.418Z,18.33
2022-09-26T15:29:59.223Z,19.30
2022-09-26T15:32:29.938Z,18.95
2022-09-26T15:34:59.966Z,17.98
2022-09-26T15:37:31.302Z,18.02
2022-09-26T15:40:20.694Z,17.53
2022-09-26T15:42:59.760Z,17.52
2022-09-26T15:45:31.453Z,18.15
2022-09-26T15:48:05.223Z,17.00
2022-09-26T15:51:04.247Z,16.80
2022-09-26T15:53:37.662Z,17.85
2022-09-26T15:56:11.398Z,16.00
2022-09-26T15:58:42.041Z,16.08
2022-09-26T16:01:12.352Z,15.80
2022-09-26T16:03:46.529Z,16.88
2022-09-26T16:06:24.177Z,17.13
2022-09-26T16:09:07.322Z,15.30
2022-09-26T16:11:46.238Z,15.73
2022-09-26T16:14:27.656Z,15.63
2022-09-26T16:17:24.013Z,15.00
2022-09-26T16:19:55.527Z,16.08
2022-09-26T16:22:25.533Z,16.60
2022-09-26T16:24:55.975Z,16.02
2022-09-26T16:27:26.958Z,15.50
2022-09-26T16:30:00.080Z,15.57
2022-09-26T16:32:33.269Z,14.70
2022-09-26T16:35:14.370Z,14.18
2022-09-26T16:37:44.411Z,13.95
2022-09-26T16:40:19.328Z,14.68
2022-09-26T16:42:49.409Z,15.05
2022-09-26T16:45:28.407Z,14.98
2022-09-26T16:47:58.512Z,14.38
2022-09-26T16:50:34.337Z,15.40
2022-09-26T16:53:04.389Z,14.52
2022-09-26T16:55:35.519Z,14.68
2022-09-26T16:58:06.056Z,13.48
2022-09-26T17:00:54.720Z,14.30
2022-09-26T17:03:24.845Z,14.55
2022-09-26T17:05:56.772Z,14.07
2022-09-26T17:08:27.682Z,12.95
2022-09-26T17:10:58.305Z,13.60
2022-09-26T17:13:29.600Z,14.60
2022-09-26T17:16:04.675Z,12.93
2022-09-26T17:18:35.099Z,13.23
2022-09-26T17:21:05.384Z,14.65
2022-09-26T17:23:40.525Z,13.13
2022-09-26T17:26:14.797Z,13.38
2022-09-26T17:28:44.925Z,14.50
2022-09-26T17:31:20.506Z,13.43
2022-09-26T17:33:54.094Z,13.05
2022-09-26T17:36:28.420Z,13.27
2022-09-26T17:39:03.581Z,12.95
2022-09-26T17:41:35.565Z,13.07
2022-09-26T17:44:05.696Z,13.45
2022-09-26T17:46:38.607Z,13.15
2022-09-26T17:49:09.557Z,12.35
2022-09-26T17:51:39.609Z,13.05
2022-09-26T17:54:11.345Z,12.02
2022-09-26T17:56:42.320Z,11.93
2022-09-26T17:59:25.568Z,11.73
2022-09-26T18:01:57.703Z,12.48
2022-09-26T18:07:01.832Z,12.10
2022-09-26T18:09:33.246Z,11.90
2022-09-26T18:12:04.425Z,11.98
2022-09-26T18:14:34.605Z,12.35
2022-09-26T18:17:05.514Z,11.82
2022-09-26T18:19:38.793Z,12.93
2022-09-26T18:22:08.830Z,12.00
2022-09-26T18:24:38.815Z,11.38
2022-09-26T18:27:08.813Z,11.77
2022-09-26T18:29:39.807Z,11.45
2022-09-26T18:32:14.229Z,11.75
2022-09-26T18:34:44.276Z,12.15
2022-09-26T18:37:14.275Z,11.07
2022-09-26T18:39:44.405Z,11.27
2022-09-26T18:42:15.888Z,11.13
2022-09-26T18:44:45.879Z,11.50
2022-09-26T18:47:16.540Z,10.82
2022-09-26T18:49:47.516Z,10.60
2022-09-26T18:52:18.972Z,11.40
2022-09-26T18:55:08.783Z,10.20
2022-09-26T18:57:57.106Z,11.43
2022-09-26T19:00:29.027Z,10.80
2022-09-26T19:02:59.225Z,11.15
2022-09-26T19:05:29.256Z,11.13
2022-09-26T19:07:59.298Z,11.32
2022-09-26T19:10:29.291Z,10.63
2022-09-26T19:13:00.599Z,10.70
2022-09-26T19:15:31.481Z,11.48
2022-09-26T19:18:01.506Z,10.13
2022-09-26T19:20:31.532Z,10.27
2022-09-26T19:23:03.866Z,10.35
2022-09-26T19:28:03.705Z,10.57
2022-09-26T19:30:33.912Z,9.32
2022-09-26T19:33:03.939Z,11.02
2022-09-26T19:35:35.154Z,10.77
2022-09-26T19:38:05.872Z,9.93
2022-09-26T19:40:36.026Z,10.68
2022-09-26T19:43:06.956Z,10.38
2022-09-26T19:45:37.022Z,10.63
2022-09-26T19:48:07.247Z,10.63
2022-09-26T19:50:37.288Z,10.07
2022-09-26T19:53:17.286Z,10.70
2022-09-26T19:55:51.473Z,9.75
2022-09-26T19:58:25.236Z,9.85
2022-09-26T20:00:56.013Z,9.90
2022-09-26T20:03:32.114Z,9.98
2022-09-26T20:06:02.187Z,10.23
2022-09-26T20:08:32.231Z,10.77
2022-09-26T20:11:02.678Z,9.38
2022-09-26T20:13:52.496Z,9.38
2022-09-26T20:16:22.584Z,10.57
2022-09-26T20:18:54.332Z,9.98
2022-09-26T20:21:26.028Z,9.45
2022-09-26T20:23:56.780Z,8.82
2022-09-26T20:26:28.001Z,9.68
2022-09-26T20:28:58.308Z,8.80
2022-09-26T20:31:31.308Z,9.07
2022-09-26T20:34:01.327Z,9.77
2022-09-26T20:36:33.281Z,9.45
2022-09-26T20:39:04.331Z,9.15
2022-09-26T20:41:35.953Z,8.55
2022-09-26T20:44:41.625Z,8.07
2022-09-26T20:47:11.996Z,8.45
2022-09-26T20:50:00.411Z,8.63
2022-09-26T20:52:31.402Z,8.90
2022-09-26T20:55:01.533Z,8.93
2022-09-26T20:57:31.557Z,8.57
2022-09-26T21:00:01.704Z,8.70
2022-09-26T21:02:41.452Z,8.63
2022-09-26T21:05:37.535Z,8.13
2022-09-26T21:08:17.306Z,7.47
2022-09-26T21:10:47.387Z,8.65
2022-09-26T21:13:17.351Z,8.50
2022-09-26T21:15:47.369Z,7.82
2022-09-26T21:18:26.945Z,8.23
2022-09-26T21:20:57.058Z,7.60
2022-09-26T21:26:09.156Z,7.85
2022-09-26T21:28:39.371Z,7.93
2022-09-26T21:31:09.441Z,8.40
2022-09-26T21:33:40.093Z,7.78
2022-09-26T21:36:10.632Z,7.38
2022-09-26T21:38:40.683Z,8.00
2022-09-26T21:41:10.807Z,8.40
2022-09-26T21:43:41.405Z,7.18
2022-09-26T21:46:11.571Z,7.22
2022-09-26T21:48:41.697Z,7.60
2022-09-26T21:51:13.978Z,7.57
2022-09-26T21:56:17.791Z,6.78
2022-09-26T21:58:47.819Z,7.38
2022-09-26T22:01:19.162Z,7.20
2022-09-26T22:03:50.124Z,7.75
2022-09-26T22:06:20.593Z,7.22
2022-09-26T22:08:51.457Z,6.85
2022-09-26T22:11:22.223Z,6.85
2022-09-26T22:13:52.316Z,7.28
2022-09-26T22:16:22.524Z,7.07
2022-09-26T22:18:53.049Z,6.40
2022-09-26T22:21:23.738Z,6.88
2022-09-26T22:23:53.802Z,6.88
2022-09-26T22:26:23.860Z,6.63
2022-09-26T22:28:53.867Z,6.93
2022-09-26T22:31:24.003Z,6.43
2022-09-26T22:33:54.523Z,7.00
2022-09-26T22:36:25.551Z,6.90
2022-09-26T22:38:56.048Z,5.90
2022-09-26T22:41:26.666Z,7.43
2022-09-26T22:43:56.740Z,6.57
2022-09-26T22:46:26.851Z,6.50
2022-09-26T22:48:57.708Z,6.93
2022-09-26T22:51:28.471Z,7.18
2022-09-26T22:53:58.541Z,7.47
2022-09-26T22:56:28.577Z,6.50
2022-09-26T22:58:58.679Z,7.05
2022-09-26T23:01:30.246Z,6.20
2022-09-26T23:04:01.625Z,6.22
2022-09-26T23:06:32.286Z,6.60
2022-09-26T23:09:02.449Z,6.63
2022-09-26T23:11:33.039Z,5.97
2022-09-26T23:14:03.301Z,6.22
2022-09-26T23:16:33.949Z,6.47
2022-09-26T23:19:04.112Z,6.40
2022-09-26T23:21:34.247Z,6.28
2022-09-26T23:24:06.026Z,6.63
2022-09-26T23:26:36.285Z,5.95
2022-09-26T23:29:06.433Z,6.70
2022-09-26T23:31:36.938Z,6.85
2022-09-26T23:34:07.774Z,6.13
2022-09-26T23:36:37.822Z,6.28
2022-09-26T23:39:08.174Z,6.28
2022-09-26T23:41:38.573Z,6.60
2022-09-26T23:44:08.851Z,7.53
2022-09-26T23:46:39.370Z,6.47
2022-09-26T23:49:09.639Z,6.25
2022-09-26T23:51:39.725Z,6.20
2022-09-26T23:54:09.839Z,6.78
2022-09-26T23:56:39.913Z,6.47
2022-09-26T23:59:10.183Z,6.20
